Pasadena Hills, Missouri
Current Conditions -  °F | °C
As of 2:51 PM on Friday 24 Oct 2014 (Local Time) from KSTL Reporting Station
Broken Clouds Broken Clouds  
Wind Chill: 74°   Ceiling: 25000
Heat Index: 74°   Visibility: 10mi
Dew Point: 53°   Wind: 5mph
Humidity: 48%   Direction: 230°SW
Pressure: 30.04"   Gusts: NA
Location:  38.7055°N, 90.3021°W
Report Text: KSTL 241951Z 23004KT 10SM BKN250 23/12 A3004 RMK AO2 SLP169 T02330117
Loading
Personal Weather Stations






























Interactive Weather Map
Tropical Storm Tracking
New forecast layout! Learn more

10-Day Weather Forecast

Advertisements
Track Severe Weather on mobile